Time;durP1;ratioP1;P1;durP2;ratioP2;P2;SDS_P1;SDS_P2;PMS_P1;PMS_P2;Temp;Humidity;BMP_temperature;BMP_pressure;BME280_temperature;BME280_humidity;BME280_pressure;Samples;Min_cycle;Max_cycle;Signal;HPM_P1;HPM_P2
2023/07/09 00:05:26;;;;;;;12.20;8.30;;;;;;;17.55;52.91;99020.36;434109;1260;96645;-41
2023/07/09 00:15:33;;;;;;;8.30;7.30;;;;;;;17.22;52.97;99030.54;433457;1260;464306;-43
2023/07/09 00:35:48;;;;;;;12.20;8.80;;;;;;;16.46;54.29;99017.30;433770;1258;98018;-41
2023/07/09 00:56:37;;;;;;;25.70;14.10;;;;;;;16.22;56.04;99001.45;433674;1256;96641;-42
2023/07/09 01:06:45;;;;;;;35.90;17.60;;;;;;;16.07;56.79;98994.05;433920;1256;109313;-42
2023/07/09 01:27:01;;;;;;;28.60;19.00;;;;;;;15.80;58.41;98996.93;435261;1255;97942;-42
2023/07/09 01:37:08;;;;;;;24.50;18.70;;;;;;;15.79;58.87;99002.27;435164;1256;111208;-44
2023/07/09 01:47:16;;;;;;;36.30;24.40;;;;;;;15.68;59.64;99003.88;435195;1252;108448;-42
2023/07/09 01:57:32;;;;;;;33.20;24.30;;;;;;;15.56;60.10;99011.90;435327;1256;96620;-43
2023/07/09 02:07:40;;;;;;;33.70;22.00;;;;;;;15.53;60.59;99022.79;435289;1256;109279;-43
2023/07/09 02:17:48;;;;;;;26.90;18.00;;;;;;;15.45;60.94;99027.73;435203;1256;108590;-42
2023/07/09 02:27:55;;;;;;;26.10;17.90;;;;;;;15.32;61.23;99022.05;435293;1256;96659;-42
2023/07/09 02:38:02;;;;;;;26.50;17.40;;;;;;;15.17;61.62;99025.73;435278;1256;109345;-43
2023/07/09 02:48:08;;;;;;;18.70;15.00;;;;;;;15.17;61.64;99028.24;435265;1256;108306;-42
2023/07/09 02:58:15;;;;;;;19.20;14.10;;;;;;;15.18;61.87;99028.95;435332;1267;98016;-41
2023/07/09 03:08:22;;;;;;;20.80;14.20;;;;;;;15.30;62.10;99025.60;435260;1257;107704;-42
2023/07/09 03:18:28;;;;;;;20.00;13.10;;;;;;;15.49;62.04;99027.40;435353;1253;96567;-42
2023/07/09 03:28:36;;;;;;;15.80;12.40;;;;;;;16.25;61.61;99026.80;435344;1254;109610;-43
2023/07/09 03:38:43;;;;;;;14.60;12.00;;;;;;;17.99;60.45;99029.35;435376;1254;108247;-43
2023/07/09 03:48:50;;;;;;;15.50;11.40;;;;;;;19.39;58.83;99032.36;435323;1251;97874;-43
2023/07/09 03:58:58;;;;;;;12.10;10.40;;;;;;;20.76;57.47;99028.48;435427;1253;108143;-44
2023/07/09 04:09:05;;;;;;;10.60;8.90;;;;;;;21.99;55.78;99030.64;435155;1254;97882;-44
2023/07/09 04:19:12;;;;;;;9.90;8.90;;;;;;;23.19;54.20;99033.70;435370;1256;110823;-42
2023/07/09 04:29:19;;;;;;;10.70;8.10;;;;;;;24.15;52.60;99028.17;435270;1257;109009;-44
2023/07/09 04:39:26;;;;;;;8.30;7.50;;;;;;;24.71;51.61;99032.43;435304;1253;118330;-42
2023/07/09 04:49:34;;;;;;;10.90;7.30;;;;;;;25.17;50.36;99031.04;435444;1253;107727;-40
2023/07/09 04:59:41;;;;;;;8.40;7.30;;;;;;;25.67;49.41;99047.30;435379;1257;97480;-43
2023/07/09 05:09:49;;;;;;;8.30;6.00;;;;;;;26.29;48.43;99042.76;435319;1256;109274;-43
2023/07/09 05:19:56;;;;;;;8.00;7.20;;;;;;;26.80;47.39;99047.59;435278;1255;107714;-42
2023/07/09 05:30:04;;;;;;;9.30;7.50;;;;;;;27.29;46.45;99055.20;435439;1255;97873;-42
2023/07/09 05:40:12;;;;;;;8.00;7.10;;;;;;;28.22;45.61;99061.80;435267;1256;110450;-44
2023/07/09 05:50:19;;;;;;;10.10;6.40;;;;;;;28.48;44.10;99058.89;435243;1256;108310;-42
2023/07/09 06:00:26;;;;;;;7.60;6.40;;;;;;;28.21;43.53;99057.73;435275;1254;97546;-41
2023/07/09 06:10:33;;;;;;;7.00;5.60;;;;;;;28.71;42.99;99056.73;435312;1256;110646;-42
2023/07/09 06:20:40;;;;;;;5.40;4.90;;;;;;;28.60;42.42;99063.73;435371;1257;108199;-42
2023/07/09 06:30:47;;;;;;;6.10;5.50;;;;;;;29.51;41.50;99057.86;435408;1256;97466;-42
2023/07/09 06:40:54;;;;;;;4.70;4.30;;;;;;;30.14;40.68;99069.40;435271;1256;109966;-44
2023/07/09 06:51:02;;;;;;;9.50;5.00;;;;;;;30.63;39.37;99065.63;435365;1255;108805;-44
2023/07/09 07:01:10;;;;;;;6.60;4.70;;;;;;;30.83;38.06;99067.77;435368;1257;97490;-43
2023/07/09 07:11:18;;;;;;;5.90;4.30;;;;;;;31.13;37.46;99062.63;435393;1256;110710;-44
2023/07/09 07:21:25;;;;;;;5.70;3.90;;;;;;;31.43;37.03;99053.14;435346;1257;107918;-43
2023/07/09 07:31:32;;;;;;;4.40;3.80;;;;;;;31.36;35.94;99057.36;435240;1264;96637;-43
2023/07/09 07:41:38;;;;;;;7.40;3.90;;;;;;;31.53;35.30;99054.44;435438;1254;109289;-43
2023/07/09 08:01:51;;;;;;;3.50;3.20;;;;;;;31.44;33.63;99055.91;435400;1258;97878;-42
2023/07/09 08:11:59;;;;;;;3.80;3.50;;;;;;;31.63;33.14;99050.83;435506;1257;102909;-43
2023/07/09 08:22:07;;;;;;;5.40;3.00;;;;;;;31.94;32.26;99052.02;435226;1257;108712;-43
2023/07/09 08:32:14;;;;;;;23.70;4.80;;;;;;;32.26;31.65;99049.61;435346;1257;97925;-43
2023/07/09 08:42:23;;;;;;;4.30;3.90;;;;;;;32.47;31.17;99048.02;435265;1264;102398;-43
2023/07/09 08:52:28;;;;;;;7.30;3.60;;;;;;;32.27;30.59;99043.44;435324;1256;99043;-43
2023/07/09 09:02:36;;;;;;;4.00;3.70;;;;;;;31.91;30.02;99041.27;435377;1257;97839;-43
2023/07/09 09:12:42;;;;;;;6.00;3.40;;;;;;;31.82;29.78;99037.80;435357;1259;103151;-42
2023/07/09 09:22:49;;;;;;;4.00;3.40;;;;;;;31.72;29.46;99033.00;435218;1257;107384;-43
2023/07/09 09:32:59;;;;;;;3.50;3.20;;;;;;;31.46;28.94;99028.06;435377;1258;97868;-42
2023/07/09 09:43:13;;;;;;;5.20;3.70;;;;;;;31.53;28.55;99032.81;435400;1256;110008;-43
2023/07/09 09:53:19;;;;;;;6.40;4.20;;;;;;;31.94;28.37;99039.23;435341;1256;108778;-43
2023/07/09 10:03:33;;;;;;;;;;;;;;;31.74;28.10;99033.58;435336;1257;97495;-42
2023/07/09 10:13:45;;;;;;;5.60;4.60;;;;;;;31.62;28.55;99030.35;435265;1258;102342;-43
2023/07/09 10:23:59;;;;;;;7.00;3.80;;;;;;;31.77;28.41;99031.56;435282;1264;100118;-44
2023/07/09 10:34:05;;;;;;;4.90;4.40;;;;;;;31.98;27.62;99033.73;435415;1254;116988;-42
2023/07/09 10:44:11;;;;;;;8.70;4.30;;;;;;;31.91;27.40;99033.38;435381;1257;100267;-42
2023/07/09 10:54:23;;;;;;;4.50;3.20;;;;;;;31.97;27.23;99029.52;435378;1251;97709;-42
2023/07/09 11:14:40;;;;;;;5.60;3.70;;;;;;;31.86;26.27;99022.80;435315;1251;98993;-43
2023/07/09 11:24:51;;;;;;;4.20;3.70;;;;;;;31.59;25.32;99021.24;435316;1254;97791;-42
2023/07/09 11:35:07;;;;;;;3.60;3.30;;;;;;;31.40;25.77;99017.64;435322;1258;107346;-41
2023/07/09 11:45:18;;;;;;;4.40;3.60;;;;;;;31.39;25.76;99017.55;435376;1251;97861;-42
2023/07/09 11:55:29;;;;;;;6.70;3.80;;;;;;;31.45;25.80;99007.51;435315;1251;109858;-41
2023/07/09 12:05:36;;;;;;;5.90;3.50;;;;;;;31.63;25.94;99013.52;435469;1255;108061;-41
2023/07/09 12:15:43;;;;;;;5.90;3.90;;;;;;;31.50;25.40;99007.38;434911;1251;326817;-41
2023/07/09 12:25:53;;;;;;;5.20;3.80;;;;;;;31.46;25.95;98994.98;435338;1256;111427;-42
2023/07/09 12:36:05;;;;;;;4.70;3.70;;;;;;;31.23;25.77;98979.73;435295;1258;107544;-41
2023/07/09 12:46:15;;;;;;;4.80;3.60;;;;;;;31.24;25.88;98977.89;435442;1256;97071;-43
2023/07/09 12:56:20;;;;;;;4.60;3.90;;;;;;;31.19;25.96;98967.61;435192;1255;110320;-42
2023/07/09 13:06:27;;;;;;;7.30;4.10;;;;;;;31.33;25.89;98967.61;435117;1254;108147;-43
2023/07/09 13:16:39;;;;;;;4.70;3.60;;;;;;;31.12;25.81;98960.45;435369;1254;98112;-42
2023/07/09 13:47:02;;;;;;;5.10;4.60;;;;;;;30.86;26.31;98950.81;435348;1257;97499;-42
2023/07/09 13:57:12;;;;;;;4.40;4.00;;;;;;;30.73;26.77;98955.59;435306;1251;108430;-41
2023/07/09 14:07:24;;;;;;;6.40;4.60;;;;;;;30.32;27.24;98953.11;435357;1254;97903;-42
2023/07/09 14:17:32;;;;;;;5.60;4.40;;;;;;;30.62;27.36;98946.29;435382;1251;109706;-42
2023/07/09 14:27:39;;;;;;;5.70;4.60;;;;;;;30.65;27.48;98951.34;435303;1257;107406;-41
2023/07/09 14:37:48;;;;;;;5.70;4.20;;;;;;;30.47;27.95;98953.16;435450;1254;96628;-41
2023/07/09 14:47:55;;;;;;;6.10;4.40;;;;;;;30.46;28.04;98941.20;435200;1251;109559;-42
2023/07/09 14:58:05;;;;;;;5.60;4.00;;;;;;;30.34;27.80;98941.85;435190;1254;109215;-43
2023/07/09 15:08:21;;;;;;;5.70;4.00;;;;;;;30.33;28.20;98938.50;435366;1256;117419;-40
2023/07/09 15:18:29;;;;;;;6.80;4.10;;;;;;;30.32;28.03;98929.66;435232;1256;107855;-42
2023/07/09 15:28:35;;;;;;;7.00;4.10;;;;;;;30.14;28.15;98919.16;435362;1252;97904;-41
2023/07/09 15:48:47;;;;;;;;;;;;;;;29.80;28.39;98921.62;435278;1255;106944;-42
2023/07/09 16:19:09;;;;;;;12.20;3.70;;;;;;;29.30;28.99;98912.69;435358;1256;107612;-41
2023/07/09 16:29:15;;;;;;;5.90;3.60;;;;;;;29.18;29.09;98908.39;435720;1255;97900;-42
2023/07/09 16:39:26;;;;;;;4.90;3.10;;;;;;;29.06;29.47;98906.97;435271;1254;110225;-44
2023/07/09 16:49:34;;;;;;;4.50;3.20;;;;;;;28.83;29.72;98912.34;435339;1256;107719;-41
2023/07/09 16:59:40;;;;;;;18.70;4.30;;;;;;;28.63;30.14;98912.34;435243;1256;97752;-42
2023/07/09 17:09:45;;;;;;;5.00;3.80;;;;;;;28.49;30.70;98915.08;435361;1256;110372;-41
2023/07/09 17:29:58;;;;;;;3.40;2.70;;;;;;;28.01;31.15;98926.09;435243;1256;97871;-41
2023/07/09 17:50:21;;;;;;;;;;;;;;;27.52;31.95;98929.50;435304;1256;108395;-41
2023/07/09 18:00:29;;;;;;;5.20;2.70;;;;;;;27.27;32.26;98933.95;435328;1256;96649;-41
2023/07/09 18:10:34;;;;;;;4.80;3.10;;;;;;;27.01;32.83;98935.40;435411;1256;111498;-42
2023/07/09 18:20:42;;;;;;;3.90;2.80;;;;;;;26.72;33.31;98939.98;435396;1256;107819;-42
2023/07/09 18:30:49;;;;;;;3.90;2.90;;;;;;;26.36;33.73;98940.48;435225;1252;97978;-41
2023/07/09 18:41:12;;;;;;;7.30;2.90;;;;;;;25.92;34.54;98935.64;435407;1256;110899;-44
2023/07/09 18:51:19;;;;;;;10.50;2.80;;;;;;;25.51;35.16;98943.47;435207;1256;108846;-41
2023/07/09 19:01:27;;;;;;;5.90;3.10;;;;;;;24.72;36.51;98945.78;435306;1256;97886;-41
2023/07/09 19:11:34;;;;;;;4.70;3.10;;;;;;;24.03;37.91;98951.54;435142;1253;107888;-40
2023/07/09 19:21:41;;;;;;;3.10;2.80;;;;;;;23.44;39.00;98962.80;435138;1256;97905;-42
2023/07/09 19:31:53;;;;;;;5.30;4.20;;;;;;;22.96;40.08;98964.05;435064;1257;109892;-43
2023/07/09 19:42:00;;;;;;;5.40;4.80;;;;;;;22.55;40.99;98969.04;435172;1257;107924;-43
2023/07/09 19:52:12;;;;;;;9.00;6.40;;;;;;;22.11;42.10;98964.49;435276;1257;97846;-43
2023/07/09 20:12:27;;;;;;;11.90;6.20;;;;;;;21.32;43.72;98983.30;435167;1253;108653;-42
2023/07/09 20:22:34;;;;;;;9.30;6.30;;;;;;;21.01;44.89;98988.54;435217;1256;100975;-44
2023/07/09 20:32:42;;;;;;;10.70;6.20;;;;;;;20.77;46.01;98995.51;435396;1254;108561;-41
2023/07/09 20:42:52;;;;;;;10.00;6.70;;;;;;;20.56;46.80;99002.85;435299;1256;97903;-41
2023/07/09 20:52:59;;;;;;;22.50;6.40;;;;;;;20.24;47.46;99016.41;435242;1253;108865;-41
2023/07/09 21:03:05;;;;;;;15.10;7.90;;;;;;;19.97;48.34;99016.92;435276;1256;108867;-41
2023/07/09 21:13:11;;;;;;;8.80;6.30;;;;;;;19.76;48.87;99012.64;435438;1254;97899;-41
2023/07/09 21:23:17;;;;;;;9.20;5.10;;;;;;;19.44;49.74;99017.17;435271;1254;109672;-42
2023/07/09 21:33:22;;;;;;;9.80;5.80;;;;;;;19.25;50.54;99029.67;435162;1256;108539;-43
2023/07/09 21:43:28;;;;;;;6.90;5.10;;;;;;;19.21;51.37;99039.83;435360;1256;97792;-42
2023/07/09 21:53:35;;;;;;;9.60;6.60;;;;;;;19.08;51.84;99039.30;435334;1254;108402;-43
2023/07/09 22:04:11;;;;;;;12.60;6.40;;;;;;;18.74;52.24;99038.92;435388;1256;96645;-41
2023/07/09 22:14:22;;;;;;;16.40;6.80;;;;;;;18.37;52.89;99038.90;435276;1254;111657;-41
2023/07/09 22:34:34;;;;;;;12.30;5.80;;;;;;;18.24;54.32;99036.73;435230;1254;97893;-42
2023/07/09 22:44:41;;;;;;;17.50;9.50;;;;;;;18.13;54.53;99036.55;435253;1256;108477;-41
2023/07/09 22:54:48;;;;;;;14.90;9.60;;;;;;;17.96;55.10;99044.01;435209;1256;97478;-41
2023/07/09 23:04:55;;;;;;;18.80;12.60;;;;;;;17.74;55.47;99050.04;435232;1254;110569;-42
2023/07/09 23:15:03;;;;;;;14.30;5.50;;;;;;;17.49;55.92;99050.17;434953;1257;108089;-42
2023/07/09 23:25:09;;;;;;;10.30;4.70;;;;;;;17.42;56.25;99042.20;435382;1268;97908;-42
2023/07/09 23:35:15;;;;;;;10.60;5.80;;;;;;;17.38;56.57;99043.15;435441;1256;107891;-42
2023/07/09 23:45:22;;;;;;;7.40;5.90;;;;;;;17.30;56.96;99042.11;435274;1254;97870;-41
2023/07/09 23:55:29;;;;;;;9.80;6.00;;;;;;;17.18;56.98;99033.58;435229;1254;110555;-41
